createdAt,value
2017-01-20T00:00:30.954Z,1030.86
2017-01-20T00:01:39.620Z,1030.87
2017-01-20T00:02:48.308Z,1030.82
2017-01-20T00:03:57.672Z,1030.79
2017-01-20T00:05:06.364Z,1030.79
2017-01-20T00:06:15.434Z,1030.79
2017-01-20T00:07:24.509Z,1030.79
2017-01-20T00:08:34.370Z,1030.77
2017-01-20T00:09:43.464Z,1030.78
2017-01-20T00:10:52.159Z,1030.75
2017-01-20T00:12:01.242Z,1030.77
2017-01-20T00:13:10.317Z,1030.8
2017-01-20T00:14:19.063Z,1030.79
2017-01-20T00:15:28.127Z,1030.79
2017-01-20T00:16:36.794Z,1030.77
2017-01-20T00:17:45.464Z,1030.72
2017-01-20T00:18:54.549Z,1030.72
2017-01-20T00:20:04.000Z,1030.75
2017-01-20T00:21:13.067Z,1030.72
2017-01-20T00:22:22.153Z,1030.7
2017-01-20T00:23:31.285Z,1030.71
2017-01-20T00:24:40.736Z,1030.68
2017-01-20T00:25:49.417Z,1030.67
2017-01-20T00:26:58.109Z,1030.68
2017-01-20T00:28:07.188Z,1030.67
2017-01-20T00:29:16.643Z,1030.65
2017-01-20T00:30:25.701Z,1030.66
2017-01-20T00:31:34.390Z,1030.66
2017-01-20T00:32:43.078Z,1030.68
2017-01-20T00:33:52.527Z,1030.69
2017-01-20T00:35:01.601Z,1030.69
2017-01-20T00:36:10.668Z,1030.69
2017-01-20T00:37:19.739Z,1030.68
2017-01-20T00:38:29.589Z,1030.7
2017-01-20T00:39:38.651Z,1030.73
2017-01-20T00:40:47.321Z,1030.72
2017-01-20T00:41:56.797Z,1030.71
2017-01-20T00:43:05.869Z,1030.74
2017-01-20T00:44:14.541Z,1030.71
2017-01-20T00:45:24.394Z,1030.73
2017-01-20T00:46:33.081Z,1030.73
2017-01-20T00:47:41.769Z,1030.72
2017-01-20T00:48:50.836Z,1030.73
2017-01-20T00:50:00.321Z,1030.73
2017-01-20T00:51:09.026Z,1030.74
2017-01-20T00:52:17.709Z,1030.74
2017-01-20T00:53:26.785Z,1030.74
2017-01-20T00:54:35.857Z,1030.7
2017-01-20T00:55:44.961Z,1030.69
2017-01-20T00:56:54.418Z,1030.7
2017-01-20T00:58:03.488Z,1030.69
2017-01-20T00:59:12.577Z,1030.66
2017-01-20T01:00:21.277Z,1030.62
2017-01-20T01:01:30.736Z,1030.65
2017-01-20T01:02:40.209Z,1030.66
2017-01-20T01:03:49.305Z,1030.59
2017-01-20T01:04:58.406Z,1030.62
2017-01-20T01:06:07.486Z,1030.63
2017-01-20T01:07:16.572Z,1030.68
2017-01-20T01:08:25.648Z,1030.68
2017-01-20T01:09:34.328Z,1030.69
2017-01-20T01:10:44.564Z,1030.7
2017-01-20T01:11:53.262Z,1030.72
2017-01-20T01:13:02.731Z,1030.73
2017-01-20T01:14:12.193Z,1030.72
2017-01-20T01:15:21.255Z,1030.72
2017-01-20T01:16:30.331Z,1030.73
2017-01-20T01:17:39.407Z,1030.75
2017-01-20T01:18:48.086Z,1030.75
2017-01-20T01:19:56.767Z,1030.75
2017-01-20T01:21:06.223Z,1030.73
2017-01-20T01:22:15.325Z,1030.74
2017-01-20T01:23:24.418Z,1030.74
2017-01-20T01:24:33.562Z,1030.73
2017-01-20T01:25:43.418Z,1030.71
2017-01-20T01:26:52.484Z,1030.7
2017-01-20T01:28:01.557Z,1030.67
2017-01-20T01:29:10.617Z,1030.69
2017-01-20T01:30:19.299Z,1030.67
2017-01-20T01:31:28.783Z,1030.69
2017-01-20T01:32:37.912Z,1030.67
2017-01-20T01:33:47.364Z,1030.66
2017-01-20T01:34:56.051Z,1030.64
2017-01-20T01:36:05.517Z,1030.64
2017-01-20T01:37:14.989Z,1030.6
2017-01-20T01:38:24.442Z,1030.62
2017-01-20T01:39:33.124Z,1030.61
2017-01-20T01:40:41.821Z,1030.6
2017-01-20T01:41:51.273Z,1030.62
2017-01-20T01:43:00.338Z,1030.6
2017-01-20T01:44:09.411Z,1030.58
2017-01-20T01:45:18.485Z,1030.54
2017-01-20T01:46:27.570Z,1030.54
2017-01-20T01:47:37.028Z,1030.52
2017-01-20T01:48:45.719Z,1030.52
2017-01-20T01:49:54.796Z,1030.54
2017-01-20T01:51:03.904Z,1030.49
2017-01-20T01:52:12.587Z,1030.48
2017-01-20T01:53:22.068Z,1030.49
2017-01-20T01:54:31.152Z,1030.45
2017-01-20T01:55:40.223Z,1030.44
2017-01-20T01:56:48.907Z,1030.44
2017-01-20T01:57:57.975Z,1030.39
2017-01-20T01:59:07.047Z,1030.41
2017-01-20T02:00:16.513Z,1030.43
2017-01-20T02:01:25.579Z,1030.44
2017-01-20T02:02:34.650Z,1030.48
2017-01-20T02:03:44.898Z,1030.46
2017-01-20T02:04:54.251Z,1030.44
2017-01-20T02:06:03.357Z,1030.47
2017-01-20T02:07:12.423Z,1030.45
2017-01-20T02:08:21.501Z,1030.45
2017-01-20T02:09:30.588Z,1030.43
2017-01-20T02:10:40.044Z,1030.41
2017-01-20T02:11:48.725Z,1030.37
2017-01-20T02:12:58.186Z,1030.41
2017-01-20T02:14:07.643Z,1030.36
2017-01-20T02:15:16.719Z,1030.39
2017-01-20T02:16:26.571Z,1030.39
2017-01-20T02:17:35.252Z,1030.41
2017-01-20T02:18:44.331Z,1030.38
2017-01-20T02:19:53.012Z,1030.41
2017-01-20T02:21:02.086Z,1030.4
2017-01-20T02:22:10.769Z,1030.4
2017-01-20T02:23:20.217Z,1030.41
2017-01-20T02:24:29.672Z,1030.41
2017-01-20T02:25:38.351Z,1030.4
2017-01-20T02:26:48.194Z,1030.45
2017-01-20T02:27:56.878Z,1030.45
2017-01-20T02:29:05.553Z,1030.41
2017-01-20T02:30:14.627Z,1030.44
2017-01-20T02:31:23.303Z,1030.46
2017-01-20T02:32:32.761Z,1030.45
2017-01-20T02:33:42.216Z,1030.45
2017-01-20T02:34:51.313Z,1030.47
2017-01-20T02:36:00.782Z,1030.49
2017-01-20T02:37:09.851Z,1030.48
2017-01-20T02:38:19.702Z,1030.49
2017-01-20T02:39:28.390Z,1030.49
2017-01-20T02:40:37.454Z,1030.5
2017-01-20T02:41:46.515Z,1030.44
2017-01-20T02:42:55.206Z,1030.49
2017-01-20T02:44:04.740Z,1030.51
2017-01-20T02:45:14.201Z,1030.51
2017-01-20T02:46:22.876Z,1030.51
2017-01-20T02:47:31.554Z,1030.52
2017-01-20T02:48:41.012Z,1030.51
2017-01-20T02:49:50.083Z,1030.55
2017-01-20T02:50:59.951Z,1030.58
2017-01-20T02:52:08.631Z,1030.59
2017-01-20T02:53:18.482Z,1030.59
2017-01-20T02:54:27.206Z,1030.57
2017-01-20T02:55:36.276Z,1030.57
2017-01-20T02:56:45.733Z,1030.55
2017-01-20T02:57:55.969Z,1030.57
2017-01-20T02:59:05.440Z,1030.59
2017-01-20T03:00:14.129Z,1030.58
2017-01-20T03:01:23.190Z,1030.56
2017-01-20T03:02:32.656Z,1030.55
2017-01-20T03:03:42.111Z,1030.54
2017-01-20T03:04:51.605Z,1030.6
2017-01-20T03:06:00.671Z,1030.56
2017-01-20T03:07:09.368Z,1030.57
2017-01-20T03:08:18.816Z,1030.57
2017-01-20T03:09:28.295Z,1030.55
2017-01-20T03:10:37.364Z,1030.55
2017-01-20T03:11:47.212Z,1030.54
2017-01-20T03:12:56.272Z,1030.52
2017-01-20T03:14:04.954Z,1030.51
2017-01-20T03:15:14.031Z,1030.51
2017-01-20T03:16:23.110Z,1030.51
2017-01-20T03:17:32.996Z,1030.51
2017-01-20T03:18:42.079Z,1030.51
2017-01-20T03:19:51.143Z,1030.49
2017-01-20T03:21:00.985Z,1030.48
2017-01-20T03:22:09.666Z,1030.49
2017-01-20T03:23:19.118Z,1030.5
2017-01-20T03:24:28.192Z,1030.5
2017-01-20T03:25:36.949Z,1030.48
2017-01-20T03:26:46.404Z,1030.5
2017-01-20T03:27:55.079Z,1030.56
2017-01-20T03:29:04.140Z,1030.57
2017-01-20T03:30:13.972Z,1030.55
2017-01-20T03:31:23.040Z,1030.57
2017-01-20T03:32:32.489Z,1030.57
2017-01-20T03:33:41.559Z,1030.55
2017-01-20T03:34:50.240Z,1030.54
2017-01-20T03:35:59.316Z,1030.51
2017-01-20T03:37:08.459Z,1030.49
2017-01-20T03:38:17.529Z,1030.51
2017-01-20T03:39:26.591Z,1030.49
2017-01-20T03:40:36.042Z,1030.49
2017-01-20T03:41:45.123Z,1030.51
2017-01-20T03:42:53.809Z,1030.54
2017-01-20T03:44:02.518Z,1030.5
2017-01-20T03:45:11.215Z,1030.56
2017-01-20T03:46:21.073Z,1030.62
2017-01-20T03:47:30.535Z,1030.56
2017-01-20T03:48:40.009Z,1030.59
2017-01-20T03:49:49.069Z,1030.62
2017-01-20T03:50:58.531Z,1030.6
2017-01-20T03:52:07.228Z,1030.63
2017-01-20T03:53:15.903Z,1030.57
2017-01-20T03:54:25.747Z,1030.63
2017-01-20T03:55:34.433Z,1030.65
2017-01-20T03:56:43.889Z,1030.64
2017-01-20T03:57:53.375Z,1030.6
2017-01-20T03:59:02.463Z,1030.65
2017-01-20T04:00:11.142Z,1030.6
2017-01-20T04:01:19.814Z,1030.59
2017-01-20T04:02:28.496Z,1030.6
2017-01-20T04:03:37.192Z,1030.58
2017-01-20T04:04:46.646Z,1030.58
2017-01-20T04:05:55.713Z,1030.59
2017-01-20T04:07:04.783Z,1030.53
2017-01-20T04:08:14.634Z,1030.57
2017-01-20T04:09:23.316Z,1030.52
2017-01-20T04:10:32.772Z,1030.56
2017-01-20T04:11:41.459Z,1030.53
2017-01-20T04:12:50.943Z,1030.57
2017-01-20T04:13:59.619Z,1030.54
2017-01-20T04:15:09.477Z,1030.57
2017-01-20T04:16:18.561Z,1030.6
2017-01-20T04:17:27.630Z,1030.55
2017-01-20T04:18:36.310Z,1030.55
2017-01-20T04:19:44.990Z,1030.57
2017-01-20T04:20:53.656Z,1030.62
2017-01-20T04:22:02.731Z,1030.57
2017-01-20T04:23:11.859Z,1030.56
2017-01-20T04:24:20.923Z,1030.55
2017-01-20T04:25:29.589Z,1030.53
2017-01-20T04:26:38.268Z,1030.53
2017-01-20T04:27:47.347Z,1030.56
2017-01-20T04:28:56.425Z,1030.51
2017-01-20T04:30:06.951Z,1030.53
2017-01-20T04:31:15.641Z,1030.52
2017-01-20T04:32:25.506Z,1030.47
2017-01-20T04:33:34.953Z,1030.49
2017-01-20T04:34:43.627Z,1030.44
2017-01-20T04:35:52.718Z,1030.44
2017-01-20T04:37:02.180Z,1030.47
2017-01-20T04:38:11.277Z,1030.49
2017-01-20T04:39:20.332Z,1030.5
2017-01-20T04:40:29.406Z,1030.46
2017-01-20T04:41:38.083Z,1030.5
2017-01-20T04:42:47.147Z,1030.5
2017-01-20T04:43:56.234Z,1030.49
2017-01-20T04:45:05.313Z,1030.5
2017-01-20T04:46:14.802Z,1030.51
2017-01-20T04:47:23.920Z,1030.49
2017-01-20T04:48:33.408Z,1030.49
2017-01-20T04:49:42.864Z,1030.48
2017-01-20T04:50:51.936Z,1030.51
2017-01-20T04:52:01.016Z,1030.51
2017-01-20T04:53:10.130Z,1030.53
2017-01-20T04:54:19.197Z,1030.51
2017-01-20T04:55:27.876Z,1030.5
2017-01-20T04:56:36.549Z,1030.53
2017-01-20T04:57:45.610Z,1030.49
2017-01-20T04:58:54.699Z,1030.53
2017-01-20T05:00:03.392Z,1030.54
2017-01-20T05:01:12.466Z,1030.52
2017-01-20T05:02:21.546Z,1030.6
2017-01-20T05:03:30.620Z,1030.57
2017-01-20T05:04:39.692Z,1030.54
2017-01-20T05:05:48.376Z,1030.52
2017-01-20T05:06:57.062Z,1030.49
2017-01-20T05:08:06.527Z,1030.53
2017-01-20T05:09:16.147Z,1030.53
2017-01-20T05:10:24.823Z,1030.53
2017-01-20T05:11:33.505Z,1030.53
2017-01-20T05:12:42.565Z,1030.55
2017-01-20T05:13:51.247Z,1030.51
2017-01-20T05:15:00.703Z,1030.56
2017-01-20T05:16:09.843Z,1030.56
2017-01-20T05:17:18.906Z,1030.55
2017-01-20T05:18:28.752Z,1030.57
2017-01-20T05:19:38.212Z,1030.57
2017-01-20T05:20:46.940Z,1030.53
2017-01-20T05:21:56.750Z,1030.52
2017-01-20T05:23:05.440Z,1030.52
2017-01-20T05:24:14.152Z,1030.51
2017-01-20T05:25:23.621Z,1030.5
2017-01-20T05:26:32.690Z,1030.48
2017-01-20T05:27:41.362Z,1030.44
2017-01-20T05:28:50.453Z,1030.49
2017-01-20T05:29:59.528Z,1030.48
2017-01-20T05:31:09.408Z,1030.47
2017-01-20T05:32:18.878Z,1030.47
2017-01-20T05:33:27.549Z,1030.48
2017-01-20T05:34:37.005Z,1030.45
2017-01-20T05:35:45.742Z,1030.44
2017-01-20T05:36:55.194Z,1030.47
2017-01-20T05:38:03.877Z,1030.49
2017-01-20T05:39:12.936Z,1030.47
2017-01-20T05:40:21.614Z,1030.48
2017-01-20T05:41:30.696Z,1030.46
2017-01-20T05:42:39.760Z,1030.46
2017-01-20T05:43:48.823Z,1030.45
2017-01-20T05:44:57.503Z,1030.47
2017-01-20T05:46:06.574Z,1030.44
2017-01-20T05:47:15.257Z,1030.46
2017-01-20T05:48:23.937Z,1030.44
2017-01-20T05:49:33.800Z,1030.47
2017-01-20T05:50:42.467Z,1030.43
2017-01-20T05:51:51.153Z,1030.45
2017-01-20T05:52:59.841Z,1030.46
2017-01-20T05:54:08.530Z,1030.48
2017-01-20T05:55:18.006Z,1030.45
2017-01-20T05:56:27.845Z,1030.45
2017-01-20T05:57:36.520Z,1030.43
2017-01-20T05:58:45.597Z,1030.46
2017-01-20T05:59:54.264Z,1030.45
2017-01-20T06:01:03.731Z,1030.49
2017-01-20T06:02:13.035Z,1030.43
2017-01-20T06:03:21.706Z,1030.42
2017-01-20T06:04:30.397Z,1030.42
2017-01-20T06:05:39.496Z,1030.39
2017-01-20T06:06:48.967Z,1030.36
2017-01-20T06:07:58.046Z,1030.35
2017-01-20T06:09:06.728Z,1030.36
2017-01-20T06:10:16.592Z,1030.33
2017-01-20T06:11:26.045Z,1030.37
2017-01-20T06:12:34.718Z,1030.37
2017-01-20T06:13:43.790Z,1030.38
2017-01-20T06:14:53.263Z,1030.33
2017-01-20T06:16:02.337Z,1030.33
2017-01-20T06:17:11.788Z,1030.3
2017-01-20T06:18:21.244Z,1030.28
2017-01-20T06:19:29.938Z,1030.3
2017-01-20T06:20:39.449Z,1030.27
2017-01-20T06:21:48.761Z,1030.28
2017-01-20T06:22:58.222Z,1030.29
2017-01-20T06:24:07.673Z,1030.31
2017-01-20T06:25:16.741Z,1030.33
2017-01-20T06:26:25.803Z,1030.32
2017-01-20T06:27:35.251Z,1030.35
2017-01-20T06:28:44.324Z,1030.4
2017-01-20T06:29:53.004Z,1030.42
2017-01-20T06:31:02.852Z,1030.41
2017-01-20T06:32:12.308Z,1030.38
2017-01-20T06:33:20.980Z,1030.4
2017-01-20T06:34:30.843Z,1030.42
2017-01-20T06:35:40.308Z,1030.39
2017-01-20T06:36:49.787Z,1030.42
2017-01-20T06:37:58.467Z,1030.46
2017-01-20T06:39:07.155Z,1030.44
2017-01-20T06:40:16.301Z,1030.45
2017-01-20T06:41:25.381Z,1030.49
2017-01-20T06:42:34.856Z,1030.48
2017-01-20T06:43:43.545Z,1030.47
2017-01-20T06:44:52.616Z,1030.47
2017-01-20T06:46:01.682Z,1030.45
2017-01-20T06:47:10.746Z,1030.42
2017-01-20T06:48:19.423Z,1030.46
2017-01-20T06:49:28.886Z,1030.39
2017-01-20T06:50:38.350Z,1030.48
2017-01-20T06:51:47.423Z,1030.45
2017-01-20T06:52:56.499Z,1030.47
2017-01-20T06:54:05.570Z,1030.5
2017-01-20T06:55:14.252Z,1030.54
2017-01-20T06:56:22.961Z,1030.53
2017-01-20T06:57:31.652Z,1030.53
2017-01-20T06:58:40.658Z,1030.53
2017-01-20T06:59:50.115Z,1030.55
2017-01-20T07:00:59.198Z,1030.54
2017-01-20T07:02:08.301Z,1030.55
2017-01-20T07:03:18.134Z,1030.54
2017-01-20T07:04:27.594Z,1030.51
2017-01-20T07:05:37.055Z,1030.51
2017-01-20T07:06:46.503Z,1030.49
2017-01-20T07:07:55.250Z,1030.51
2017-01-20T07:09:04.333Z,1030.52
2017-01-20T07:10:13.411Z,1030.53
2017-01-20T07:11:22.480Z,1030.5
2017-01-20T07:12:31.572Z,1030.48
2017-01-20T07:13:41.029Z,1030.45
2017-01-20T07:14:50.491Z,1030.51
2017-01-20T07:15:59.577Z,1030.53
2017-01-20T07:17:09.058Z,1030.56
2017-01-20T07:18:18.118Z,1030.54
2017-01-20T07:19:27.182Z,1030.52
2017-01-20T07:20:35.863Z,1030.58
2017-01-20T07:21:45.757Z,1030.52
2017-01-20T07:22:54.446Z,1030.52
2017-01-20T07:24:04.293Z,1030.51
2017-01-20T07:25:13.359Z,1030.52
2017-01-20T07:26:22.850Z,1030.53
2017-01-20T07:27:31.904Z,1030.47
2017-01-20T07:28:41.443Z,1030.5
2017-01-20T07:29:50.524Z,1030.45
2017-01-20T07:30:59.616Z,1030.48
2017-01-20T07:32:08.691Z,1030.5
2017-01-20T07:33:17.849Z,1030.49
2017-01-20T07:34:26.934Z,1030.46
2017-01-20T07:35:36.007Z,1030.5
2017-01-20T07:36:45.093Z,1030.5
2017-01-20T07:37:54.162Z,1030.49
2017-01-20T07:39:03.249Z,1030.46
2017-01-20T07:40:11.941Z,1030.4
2017-01-20T07:41:21.791Z,1030.41
2017-01-20T07:42:30.856Z,1030.43
2017-01-20T07:43:39.945Z,1030.41
2017-01-20T07:44:49.404Z,1030.37
2017-01-20T07:45:58.875Z,1030.36
2017-01-20T07:47:07.553Z,1030.38
2017-01-20T07:48:16.244Z,1030.36
2017-01-20T07:49:25.695Z,1030.41
2017-01-20T07:50:35.190Z,1030.36
2017-01-20T07:51:44.653Z,1030.36
2017-01-20T07:52:53.724Z,1030.35
2017-01-20T07:54:03.571Z,1030.33
2017-01-20T07:55:12.669Z,1030.39
2017-01-20T07:56:21.749Z,1030.32
2017-01-20T07:57:31.207Z,1030.35
2017-01-20T07:58:39.886Z,1030.34
2017-01-20T07:59:49.348Z,1030.35
2017-01-20T08:00:58.462Z,1030.42
2017-01-20T08:02:07.182Z,1030.35
2017-01-20T08:03:16.303Z,1030.35
2017-01-20T08:04:25.389Z,1030.35
2017-01-20T08:05:34.072Z,1030.36
2017-01-20T08:06:43.177Z,1030.33
2017-01-20T08:07:52.314Z,1030.38
2017-01-20T08:09:01.010Z,1030.43
2017-01-20T08:10:10.079Z,1030.42
2017-01-20T08:11:18.753Z,1030.41
2017-01-20T08:12:27.833Z,1030.39
2017-01-20T08:13:37.287Z,1030.43
2017-01-20T08:14:46.755Z,1030.44
2017-01-20T08:15:55.834Z,1030.49
2017-01-20T08:17:04.542Z,1030.46
2017-01-20T08:18:13.998Z,1030.48
2017-01-20T08:19:23.066Z,1030.52
2017-01-20T08:20:32.538Z,1030.57
2017-01-20T08:21:41.225Z,1030.54
2017-01-20T08:22:50.311Z,1030.57
2017-01-20T08:23:59.796Z,1030.6
2017-01-20T08:25:08.877Z,1030.6
2017-01-20T08:26:18.332Z,1030.57
2017-01-20T08:27:27.428Z,1030.59
2017-01-20T08:28:36.892Z,1030.65
2017-01-20T08:29:46.751Z,1030.59
2017-01-20T08:30:55.442Z,1030.63
2017-01-20T08:32:04.915Z,1030.61
2017-01-20T08:33:13.988Z,1030.6
2017-01-20T08:34:23.099Z,1030.63
2017-01-20T08:35:32.229Z,1030.6
2017-01-20T08:36:41.701Z,1030.61
2017-01-20T08:37:50.391Z,1030.62
2017-01-20T08:38:59.865Z,1030.6
2017-01-20T08:40:09.728Z,1030.59
2017-01-20T08:41:19.576Z,1030.58
2017-01-20T08:42:28.284Z,1030.6
2017-01-20T08:43:37.343Z,1030.6
2017-01-20T08:44:46.031Z,1030.61
2017-01-20T08:45:55.105Z,1030.62
2017-01-20T08:47:03.786Z,1030.57
2017-01-20T08:48:12.469Z,1030.61
2017-01-20T08:49:21.544Z,1030.63
2017-01-20T08:50:30.635Z,1030.63
2017-01-20T08:51:39.713Z,1030.6
2017-01-20T08:52:48.794Z,1030.65
2017-01-20T08:53:57.875Z,1030.63
2017-01-20T08:55:06.943Z,1030.64
2017-01-20T08:56:16.407Z,1030.69
2017-01-20T08:57:25.479Z,1030.68
2017-01-20T08:58:34.563Z,1030.69
2017-01-20T08:59:43.643Z,1030.72
2017-01-20T09:00:52.721Z,1030.73
2017-01-20T09:02:01.791Z,1030.71
2017-01-20T09:03:10.862Z,1030.66
2017-01-20T09:04:19.980Z,1030.67
2017-01-20T09:05:29.067Z,1030.7
2017-01-20T09:06:38.134Z,1030.7
2017-01-20T09:07:47.590Z,1030.66
2017-01-20T09:08:57.059Z,1030.64
2017-01-20T09:10:05.820Z,1030.64
2017-01-20T09:11:14.492Z,1030.66
2017-01-20T09:12:23.582Z,1030.66
2017-01-20T09:13:32.290Z,1030.65
2017-01-20T09:14:41.358Z,1030.68
2017-01-20T09:15:50.427Z,1030.63
2017-01-20T09:16:59.508Z,1030.61
2017-01-20T09:18:09.359Z,1030.59
2017-01-20T09:19:18.429Z,1030.6
2017-01-20T09:20:27.896Z,1030.55
2017-01-20T09:21:37.355Z,1030.55
2017-01-20T09:22:46.812Z,1030.58
2017-01-20T09:23:55.907Z,1030.58
2017-01-20T09:25:04.582Z,1030.61
2017-01-20T09:26:14.435Z,1030.6
2017-01-20T09:27:23.894Z,1030.61
2017-01-20T09:28:32.971Z,1030.61
2017-01-20T09:29:42.046Z,1030.61
2017-01-20T09:30:51.125Z,1030.57
2017-01-20T09:32:00.200Z,1030.56
2017-01-20T09:33:08.906Z,1030.56
2017-01-20T09:34:19.183Z,1030.57
2017-01-20T09:35:28.259Z,1030.51
2017-01-20T09:36:37.322Z,1030.54
2017-01-20T09:37:46.005Z,1030.54
2017-01-20T09:38:55.073Z,1030.56
2017-01-20T09:40:04.555Z,1030.55
2017-01-20T09:41:14.004Z,1030.55
2017-01-20T09:42:23.455Z,1030.54
2017-01-20T09:43:32.136Z,1030.54
2017-01-20T09:44:41.219Z,1030.5
2017-01-20T09:45:49.899Z,1030.55
2017-01-20T09:46:58.591Z,1030.56
2017-01-20T09:48:08.063Z,1030.61
2017-01-20T09:49:17.164Z,1030.64
2017-01-20T09:50:25.835Z,1030.6
2017-01-20T09:51:35.297Z,1030.61
2017-01-20T09:52:45.146Z,1030.6
2017-01-20T09:53:54.223Z,1030.63
2017-01-20T09:55:03.681Z,1030.58
2017-01-20T09:56:12.756Z,1030.61
2017-01-20T09:57:22.224Z,1030.6
2017-01-20T09:58:31.296Z,1030.65
2017-01-20T09:59:40.375Z,1030.62
2017-01-20T10:00:49.860Z,1030.67
2017-01-20T10:01:59.332Z,1030.65
2017-01-20T10:03:08.027Z,1030.65
2017-01-20T10:04:17.089Z,1030.65
2017-01-20T10:05:26.172Z,1030.62
2017-01-20T10:06:35.241Z,1030.62
2017-01-20T10:07:43.916Z,1030.64
2017-01-20T10:08:52.998Z,1030.64
2017-01-20T10:10:02.076Z,1030.63
2017-01-20T10:11:11.541Z,1030.63
2017-01-20T10:12:21.055Z,1030.56
2017-01-20T10:13:29.733Z,1030.62
2017-01-20T10:14:38.433Z,1030.58
2017-01-20T10:15:47.925Z,1030.55
2017-01-20T10:16:56.621Z,1030.56
2017-01-20T10:18:05.308Z,1030.55
2017-01-20T10:19:14.367Z,1030.52
2017-01-20T10:20:23.444Z,1030.51
2017-01-20T10:21:32.508Z,1030.5
2017-01-20T10:22:41.974Z,1030.5
2017-01-20T10:23:51.036Z,1030.54
2017-01-20T10:25:00.901Z,1030.5
2017-01-20T10:26:10.355Z,1030.49
2017-01-20T10:27:19.813Z,1030.5
2017-01-20T10:28:28.498Z,1030.48
2017-01-20T10:29:37.577Z,1030.49
2017-01-20T10:30:46.274Z,1030.47
2017-01-20T10:31:55.335Z,1030.46
2017-01-20T10:33:04.412Z,1030.47
2017-01-20T10:34:13.872Z,1030.49
2017-01-20T10:35:22.946Z,1030.47
2017-01-20T10:36:32.406Z,1030.45
2017-01-20T10:37:41.464Z,1030.46
2017-01-20T10:38:50.961Z,1030.44
2017-01-20T10:39:59.647Z,1030.49
2017-01-20T10:41:09.024Z,1030.44
2017-01-20T10:42:18.088Z,1030.39
2017-01-20T10:43:27.155Z,1030.36
2017-01-20T10:44:36.608Z,1030.38
2017-01-20T10:45:46.480Z,1030.31
2017-01-20T10:46:56.056Z,1030.33
2017-01-20T10:48:05.231Z,1030.3
2017-01-20T10:49:14.322Z,1030.3
2017-01-20T10:50:23.379Z,1030.3
2017-01-20T10:51:32.081Z,1030.31
2017-01-20T10:52:41.157Z,1030.24
2017-01-20T10:53:49.837Z,1030.27
2017-01-20T10:54:59.312Z,1030.23
2017-01-20T10:56:07.991Z,1030.25
2017-01-20T10:57:17.448Z,1030.2
2017-01-20T10:58:26.509Z,1030.21
2017-01-20T10:59:35.604Z,1030.18
2017-01-20T11:00:45.069Z,1030.14
2017-01-20T11:01:54.158Z,1030.15
2017-01-20T11:03:03.632Z,1030.14
2017-01-20T11:04:13.490Z,1030.1
2017-01-20T11:05:22.185Z,1030.09
2017-01-20T11:06:31.644Z,1030.09
2017-01-20T11:07:41.516Z,1030.01
2017-01-20T11:08:50.597Z,1029.96
2017-01-20T11:10:00.073Z,1029.96
2017-01-20T11:11:09.529Z,1029.99
2017-01-20T11:12:18.220Z,1029.99
2017-01-20T11:13:27.362Z,1029.96
2017-01-20T11:14:36.448Z,1029.94
2017-01-20T11:15:45.523Z,1029.93
2017-01-20T11:16:55.013Z,1029.96
2017-01-20T11:18:04.470Z,1029.93
2017-01-20T11:19:13.546Z,1029.94
2017-01-20T11:20:23.014Z,1029.94
2017-01-20T11:21:32.130Z,1029.85
2017-01-20T11:22:40.814Z,1029.93
2017-01-20T11:23:49.505Z,1029.87
2017-01-20T11:24:58.591Z,1029.85
2017-01-20T11:26:08.459Z,1029.86
2017-01-20T11:27:17.133Z,1029.86
2017-01-20T11:28:26.199Z,1029.77
2017-01-20T11:29:35.640Z,1029.76
2017-01-20T11:30:44.705Z,1029.77
2017-01-20T11:31:54.554Z,1029.77
2017-01-20T11:33:03.636Z,1029.77
2017-01-20T11:34:13.114Z,1029.73
2017-01-20T11:35:22.189Z,1029.71
2017-01-20T11:36:30.864Z,1029.74
2017-01-20T11:37:40.709Z,1029.67
2017-01-20T11:38:49.379Z,1029.68
2017-01-20T11:39:58.446Z,1029.66
2017-01-20T11:41:07.124Z,1029.66
2017-01-20T11:42:16.594Z,1029.63
2017-01-20T11:43:26.067Z,1029.63
2017-01-20T11:44:34.752Z,1029.64
2017-01-20T11:45:43.829Z,1029.6
2017-01-20T11:46:52.901Z,1029.57
2017-01-20T11:48:01.570Z,1029.61
2017-01-20T11:49:11.039Z,1029.58
2017-01-20T11:50:19.721Z,1029.58
2017-01-20T11:51:28.414Z,1029.62
2017-01-20T11:52:37.894Z,1029.58
2017-01-20T11:53:46.601Z,1029.59
2017-01-20T11:54:56.103Z,1029.57
2017-01-20T11:56:05.171Z,1029.54
2017-01-20T11:57:15.016Z,1029.52
2017-01-20T11:58:24.472Z,1029.52
2017-01-20T11:59:33.943Z,1029.48
2017-01-20T12:00:42.628Z,1029.48
2017-01-20T12:01:51.323Z,1029.47
2017-01-20T12:03:00.007Z,1029.44
2017-01-20T12:04:09.091Z,1029.42
2017-01-20T12:05:18.162Z,1029.41
2017-01-20T12:06:27.232Z,1029.42
2017-01-20T12:07:36.296Z,1029.41
2017-01-20T12:08:44.993Z,1029.43
2017-01-20T12:09:54.470Z,1029.39
2017-01-20T12:11:03.153Z,1029.42
2017-01-20T12:12:12.233Z,1029.38
2017-01-20T12:13:20.925Z,1029.4
2017-01-20T12:14:30.779Z,1029.41
2017-01-20T12:15:39.477Z,1029.37
2017-01-20T12:16:48.567Z,1029.35
2017-01-20T12:17:57.285Z,1029.3
2017-01-20T12:19:06.353Z,1029.28
2017-01-20T12:20:15.419Z,1029.28
2017-01-20T12:21:24.094Z,1029.3
2017-01-20T12:22:33.561Z,1029.26
2017-01-20T12:23:42.262Z,1029.27
2017-01-20T12:24:52.115Z,1029.23
2017-01-20T12:26:01.582Z,1029.23
2017-01-20T12:27:10.673Z,1029.22
2017-01-20T12:28:19.375Z,1029.24
2017-01-20T12:29:28.488Z,1029.18
2017-01-20T12:30:37.166Z,1029.17
2017-01-20T12:31:46.643Z,1029.16
2017-01-20T12:32:56.109Z,1029.14
2017-01-20T12:34:05.959Z,1029.14
2017-01-20T12:35:15.036Z,1029.15
2017-01-20T12:36:23.714Z,1029.15
2017-01-20T12:37:32.417Z,1029.15
2017-01-20T12:38:41.154Z,1029.12
2017-01-20T12:39:50.222Z,1029.12
2017-01-20T12:40:58.908Z,1029.09
2017-01-20T12:42:07.981Z,1029.1
2017-01-20T12:43:17.055Z,1029.13
2017-01-20T12:44:26.529Z,1029.09
2017-01-20T12:45:36.002Z,1029.07
2017-01-20T12:46:45.465Z,1029.06
2017-01-20T12:47:54.152Z,1029.07
2017-01-20T12:49:02.854Z,1029.06
2017-01-20T12:50:11.935Z,1029.07
2017-01-20T12:51:21.004Z,1029.08
2017-01-20T12:52:30.074Z,1029.06
2017-01-20T12:53:39.147Z,1029.04
2017-01-20T12:54:48.233Z,1029
2017-01-20T12:55:57.321Z,1029.03
2017-01-20T12:57:06.387Z,1028.98
2017-01-20T12:58:15.910Z,1028.97
2017-01-20T12:59:24.994Z,1028.94
2017-01-20T13:00:33.674Z,1028.93
2017-01-20T13:01:43.138Z,1028.91
2017-01-20T13:02:51.822Z,1028.92
2017-01-20T13:04:01.315Z,1028.91
2017-01-20T13:05:11.066Z,1028.93
2017-01-20T13:06:20.142Z,1028.91
2017-01-20T13:07:29.996Z,1028.96
2017-01-20T13:08:39.482Z,1028.93
2017-01-20T13:09:48.590Z,1028.94
2017-01-20T13:10:57.260Z,1028.92
2017-01-20T13:12:06.706Z,1028.97
2017-01-20T13:13:16.552Z,1028.88
2017-01-20T13:14:26.003Z,1028.93
2017-01-20T13:15:35.466Z,1028.9
2017-01-20T13:16:44.595Z,1028.91
2017-01-20T13:17:54.445Z,1028.92
2017-01-20T13:19:03.147Z,1028.9
2017-01-20T13:20:12.607Z,1028.88
2017-01-20T13:21:22.083Z,1028.88
2017-01-20T13:22:31.942Z,1028.84
2017-01-20T13:23:40.636Z,1028.86
2017-01-20T13:24:49.338Z,1028.82
2017-01-20T13:25:58.416Z,1028.8
2017-01-20T13:27:07.900Z,1028.84
2017-01-20T13:28:16.589Z,1028.79
2017-01-20T13:29:26.271Z,1028.76
2017-01-20T13:30:35.357Z,1028.76
2017-01-20T13:31:44.425Z,1028.75
2017-01-20T13:32:53.492Z,1028.75
2017-01-20T13:34:02.570Z,1028.75
2017-01-20T13:35:12.064Z,1028.7
2017-01-20T13:36:21.148Z,1028.73
2017-01-20T13:37:30.660Z,1028.69
2017-01-20T13:38:39.356Z,1028.67
2017-01-20T13:39:48.037Z,1028.69
2017-01-20T13:40:57.114Z,1028.72
2017-01-20T13:42:05.780Z,1028.7
2017-01-20T13:43:14.857Z,1028.68
2017-01-20T13:44:23.553Z,1028.69
2017-01-20T13:45:32.232Z,1028.65
2017-01-20T13:46:41.687Z,1028.69
2017-01-20T13:47:50.377Z,1028.67
2017-01-20T13:48:59.851Z,1028.62
2017-01-20T13:50:08.945Z,1028.64
2017-01-20T13:51:17.619Z,1028.65
2017-01-20T13:52:26.313Z,1028.61
2017-01-20T13:53:34.999Z,1028.58
2017-01-20T13:54:44.074Z,1028.56
2017-01-20T13:55:53.175Z,1028.58
2017-01-20T13:57:01.857Z,1028.55
2017-01-20T13:58:10.938Z,1028.55
2017-01-20T13:59:20.538Z,1028.5